Time;durP1;ratioP1;P1;durP2;ratioP2;P2;SDS_P1;SDS_P2;PMS_P1;PMS_P2;Temp;Humidity;BMP_temperature;BMP_pressure;BME280_temperature;BME280_humidity;BME280_pressure;Samples;Min_cycle;Max_cycle;Signal;HPM_P1;HPM_P2
2022/10/10 00:01:40;;;;;;;29.23;22.27;;;6.10;99.90;;;;;;5049549;28;20203;-51
2022/10/10 00:04:08;;;;;;;85.97;68.57;;;6.10;99.90;;;;;;5048293;28;20225;-50
2022/10/10 00:06:36;;;;;;;17.20;15.33;;;6.10;99.90;;;;;;5047173;28;20731;-50
2022/10/10 00:09:05;;;;;;;33.07;30.30;;;6.10;99.90;;;;;;5049583;28;20223;-51
2022/10/10 00:11:33;;;;;;;17.13;15.87;;;6.10;99.90;;;;;;5048901;28;20667;-51
2022/10/10 00:14:03;;;;;;;17.33;12.77;;;6.10;99.90;;;;;;5048047;28;20671;-50
2022/10/10 00:16:31;;;;;;;40.60;33.10;;;6.10;99.90;;;;;;5049459;28;20208;-51
2022/10/10 00:18:59;;;;;;;57.07;45.70;;;6.10;99.90;;;;;;5049129;28;21092;-51
2022/10/10 00:21:27;;;;;;;11.13;10.27;;;6.10;99.90;;;;;;5035589;28;20285;-50
2022/10/10 00:23:55;;;;;;;44.13;40.67;;;6.00;99.90;;;;;;5048641;28;20335;-51
2022/10/10 00:26:23;;;;;;;74.90;67.13;;;6.00;99.90;;;;;;5045853;28;20294;-51
2022/10/10 00:28:51;;;;;;;22.23;20.63;;;5.90;99.90;;;;;;5040505;28;20590;-51
2022/10/10 00:31:20;;;;;;;36.33;32.20;;;6.00;99.90;;;;;;5048048;28;20297;-50
2022/10/10 00:33:48;;;;;;;86.20;65.00;;;6.00;99.90;;;;;;5046399;28;20312;-51
2022/10/10 00:36:19;;;;;;;28.50;25.80;;;6.00;99.90;;;;;;5048952;28;20240;-50
2022/10/10 00:38:47;;;;;;;69.10;62.20;;;6.00;99.90;;;;;;5048986;28;20259;-50
2022/10/10 00:41:16;;;;;;;17.67;16.27;;;6.00;99.90;;;;;;5048639;28;20212;-50
2022/10/10 00:44:00;;;;;;;43.80;40.27;;;6.00;99.90;;;;;;5041968;28;20226;-50
2022/10/10 00:46:29;;;;;;;218.57;114.53;;;6.00;99.90;;;;;;5048579;28;20221;-50
2022/10/10 00:48:58;;;;;;;20.07;18.27;;;6.00;99.90;;;;;;5048650;28;20226;-51
2022/10/10 00:51:26;;;;;;;30.33;26.23;;;6.00;99.90;;;;;;5049329;28;20209;-50
2022/10/10 00:53:58;;;;;;;36.80;33.30;;;6.00;99.90;;;;;;5047711;28;20308;-50
2022/10/10 00:56:30;;;;;;;39.83;36.53;;;6.00;99.90;;;;;;5048789;28;20300;-49
2022/10/10 00:59:03;;;;;;;106.13;77.60;;;5.90;99.90;;;;;;5048812;28;20290;-50
2022/10/10 01:01:32;;;;;;;112.40;98.20;;;5.90;99.90;;;;;;5040334;28;20296;-50
2022/10/10 01:04:02;;;;;;;17.27;15.93;;;5.80;99.90;;;;;;5045612;28;20360;-50
2022/10/10 01:06:30;;;;;;;37.03;34.17;;;5.80;99.90;;;;;;5049013;28;20212;-51
2022/10/10 01:08:58;;;;;;;43.90;38.57;;;5.80;99.90;;;;;;5049056;28;20224;-50
2022/10/10 01:11:38;;;;;;;127.93;97.87;;;5.90;99.90;;;;;;5048901;28;20311;-51
2022/10/10 01:14:16;;;;;;;27.77;26.00;;;5.90;99.90;;;;;;5048721;28;20231;-50
2022/10/10 01:16:56;;;;;;;42.47;37.93;;;5.80;99.90;;;;;;5052661;28;20240;-51
2022/10/10 01:19:56;;;;;;;36.10;32.67;;;5.90;99.90;;;;;;5052316;28;20286;-50
2022/10/10 01:22:32;;;;;;;68.43;62.20;;;5.80;99.90;;;;;;5043666;28;20206;-50
2022/10/10 01:25:14;;;;;;;63.40;54.70;;;5.80;99.90;;;;;;5051432;28;20313;-51
2022/10/10 01:27:44;;;;;;;19.33;17.93;;;5.80;99.90;;;;;;5052494;28;20313;-51
2022/10/10 01:30:17;;;;;;;52.90;49.03;;;5.80;99.90;;;;;;5051571;28;20201;-51
2022/10/10 01:32:52;;;;;;;47.10;42.83;;;5.70;99.90;;;;;;5051601;28;20217;-51
2022/10/10 01:35:44;;;;;;;30.27;21.50;;;5.70;99.90;;;;;;5038338;28;20668;-51
2022/10/10 01:38:22;;;;;;;23.43;21.63;;;5.70;99.90;;;;;;5052018;28;20301;-50
2022/10/10 01:40:56;;;;;;;16.53;14.93;;;5.70;99.90;;;;;;5051400;28;20211;-51
2022/10/10 01:43:25;;;;;;;67.27;62.33;;;5.60;99.90;;;;;;5050627;28;20320;-50
2022/10/10 01:45:55;;;;;;;28.90;27.03;;;5.60;99.90;;;;;;5051747;28;20230;-51
2022/10/10 01:48:28;;;;;;;36.03;25.03;;;5.60;99.90;;;;;;5051160;28;20661;-50
2022/10/10 01:51:16;;;;;;;31.13;29.07;;;5.60;99.90;;;;;;5052277;28;20217;-51
2022/10/10 01:53:50;;;;;;;33.77;30.90;;;5.60;99.90;;;;;;5051570;28;20236;-50
2022/10/10 01:56:30;;;;;;;37.73;30.93;;;5.60;99.90;;;;;;5051790;28;20219;-51
2022/10/10 01:59:10;;;;;;;15.07;13.70;;;5.50;99.90;;;;;;5045862;28;20296;-51
2022/10/10 02:01:47;;;;;;;33.77;30.17;;;5.50;99.90;;;;;;5051902;28;20667;-50
2022/10/10 02:04:22;;;;;;;107.47;93.07;;;5.50;99.90;;;;;;5052318;28;20226;-50
2022/10/10 02:06:54;;;;;;;56.90;52.10;;;5.40;99.90;;;;;;5053467;28;20659;-50
2022/10/10 02:09:28;;;;;;;70.23;63.47;;;5.40;99.90;;;;;;5052871;28;20770;-50
2022/10/10 02:11:58;;;;;;;31.90;29.43;;;5.40;99.90;;;;;;5052364;28;20215;-50
2022/10/10 02:14:30;;;;;;;48.40;42.63;;;5.40;99.90;;;;;;5052002;28;20234;-50
2022/10/10 02:17:01;;;;;;;17.90;16.23;;;5.40;99.90;;;;;;5051346;28;20302;-50
2022/10/10 02:19:30;;;;;;;18.90;17.17;;;5.40;99.90;;;;;;5050636;28;20194;-50
2022/10/10 02:22:00;;;;;;;23.83;22.13;;;5.40;99.90;;;;;;5051057;28;20750;-50
2022/10/10 02:24:28;;;;;;;31.27;28.43;;;5.40;99.90;;;;;;5050904;28;20256;-49
2022/10/10 02:27:01;;;;;;;29.00;26.40;;;5.40;99.90;;;;;;5051212;28;20217;-50
2022/10/10 02:29:32;;;;;;;27.83;25.50;;;5.40;99.90;;;;;;5050987;28;20787;-50
2022/10/10 02:32:08;;;;;;;23.73;21.60;;;5.40;99.90;;;;;;5050650;28;20237;-50
2022/10/10 02:34:38;;;;;;;67.70;62.93;;;5.40;99.90;;;;;;5050585;28;20300;-50
2022/10/10 02:37:11;;;;;;;59.57;46.97;;;5.50;99.90;;;;;;5050893;28;20324;-51
2022/10/10 02:39:43;;;;;;;19.93;18.27;;;5.50;99.90;;;;;;5050337;28;20210;-50
2022/10/10 02:42:16;;;;;;;41.67;38.93;;;5.40;99.90;;;;;;5040498;28;20212;-50
2022/10/10 02:44:45;;;;;;;34.27;31.70;;;5.40;99.90;;;;;;5050711;28;20359;-50
2022/10/10 02:47:14;;;;;;;92.13;80.60;;;5.40;99.90;;;;;;5051301;28;20206;-50
2022/10/10 02:49:43;;;;;;;26.53;24.70;;;5.40;99.90;;;;;;5047334;28;20328;-50
2022/10/10 02:52:14;;;;;;;42.23;39.17;;;5.40;99.90;;;;;;5050334;28;20601;-50
2022/10/10 02:54:43;;;;;;;32.83;30.33;;;5.30;99.90;;;;;;5051018;28;20259;-51
2022/10/10 02:57:11;;;;;;;146.77;111.97;;;5.30;99.90;;;;;;5050621;28;20326;-50
2022/10/10 02:59:39;;;;;;;15.07;13.73;;;5.30;99.90;;;;;;5051074;28;20619;-49
2022/10/10 03:02:08;;;;;;;34.03;31.63;;;5.30;99.90;;;;;;5050121;28;20692;-51
2022/10/10 03:04:37;;;;;;;12.87;11.67;;;5.20;99.90;;;;;;5050467;28;20313;-51
2022/10/10 03:07:05;;;;;;;24.03;22.03;;;5.20;99.90;;;;;;5050685;28;20214;-50
2022/10/10 03:09:34;;;;;;;31.17;29.23;;;5.20;99.90;;;;;;5050107;28;20312;-51
2022/10/10 03:12:02;;;;;;;58.43;54.27;;;5.20;99.90;;;;;;5050205;28;20243;-51
2022/10/10 03:14:30;;;;;;;27.10;24.17;;;5.20;99.90;;;;;;5050154;28;20253;-49
2022/10/10 03:16:58;;;;;;;48.87;43.77;;;5.20;99.90;;;;;;5050846;28;20290;-51
2022/10/10 03:19:26;;;;;;;50.53;46.10;;;5.20;99.90;;;;;;5050178;28;20237;-50
2022/10/10 03:21:55;;;;;;;57.73;52.73;;;5.20;99.90;;;;;;5044854;28;20269;-50
2022/10/10 03:24:23;;;;;;;391.00;228.47;;;5.20;99.90;;;;;;5047421;28;20368;-50
2022/10/10 03:26:51;;;;;;;61.77;55.57;;;5.20;99.90;;;;;;5047652;28;20331;-50
2022/10/10 03:29:20;;;;;;;98.17;83.40;;;5.20;99.90;;;;;;5049911;28;20228;-51
2022/10/10 03:31:48;;;;;;;31.57;29.23;;;5.20;99.90;;;;;;5044035;28;20202;-50
2022/10/10 03:34:16;;;;;;;41.40;37.77;;;5.20;99.90;;;;;;5049997;28;20228;-50
2022/10/10 03:36:44;;;;;;;79.47;53.10;;;5.30;99.90;;;;;;5049063;28;20330;-50
2022/10/10 03:39:13;;;;;;;238.17;127.90;;;5.30;99.90;;;;;;5049129;28;21071;-50
2022/10/10 03:41:41;;;;;;;37.67;34.93;;;5.30;99.90;;;;;;5048639;28;20222;-51
2022/10/10 03:44:09;;;;;;;175.40;117.53;;;5.30;99.90;;;;;;5049414;28;20232;-50
2022/10/10 03:46:37;;;;;;;166.33;88.40;;;5.30;99.90;;;;;;5050418;28;20213;-50
2022/10/10 03:49:05;;;;;;;67.30;45.57;;;5.30;99.90;;;;;;5051309;28;20217;-50
2022/10/10 03:51:33;;;;;;;263.53;121.77;;;5.30;99.90;;;;;;5052581;28;20287;-51
2022/10/10 03:54:01;;;;;;;23.43;21.53;;;5.30;99.90;;;;;;5050881;28;20224;-50
2022/10/10 03:56:31;;;;;;;38.60;35.70;;;5.30;99.90;;;;;;5049424;28;20224;-51
2022/10/10 03:58:59;;;;;;;36.67;34.50;;;5.30;99.90;;;;;;5047966;28;20216;-51
2022/10/10 04:01:28;;;;;;;30.20;27.37;;;5.20;99.90;;;;;;5047485;28;20237;-52
2022/10/10 04:03:56;;;;;;;23.57;22.07;;;5.20;99.90;;;;;;5045198;28;20247;-51
2022/10/10 04:06:26;;;;;;;73.47;66.47;;;5.10;99.90;;;;;;5048689;28;20660;-49
2022/10/10 04:08:54;;;;;;;28.63;26.63;;;5.10;99.90;;;;;;5047043;28;20563;-50
2022/10/10 04:11:22;;;;;;;25.73;23.10;;;5.10;99.90;;;;;;5046445;28;20234;-49
2022/10/10 04:13:51;;;;;;;33.97;30.37;;;5.10;99.90;;;;;;5048384;28;20309;-50
2022/10/10 04:16:19;;;;;;;34.83;32.47;;;5.00;99.90;;;;;;5048884;28;20213;-50
2022/10/10 04:18:47;;;;;;;39.40;35.97;;;5.00;99.90;;;;;;5049317;28;20300;-50
2022/10/10 04:21:15;;;;;;;38.43;35.40;;;5.10;99.90;;;;;;5041492;28;20213;-51
2022/10/10 04:23:43;;;;;;;31.03;28.80;;;5.10;99.90;;;;;;5047466;28;20230;-50
2022/10/10 04:26:11;;;;;;;29.33;26.90;;;5.10;99.90;;;;;;5047483;28;20666;-51
2022/10/10 04:28:39;;;;;;;116.77;76.77;;;5.10;99.90;;;;;;5044545;28;20609;-50
2022/10/10 04:31:09;;;;;;;62.23;56.90;;;5.00;99.90;;;;;;5048372;28;20635;-50
2022/10/10 04:33:37;;;;;;;20.60;19.07;;;5.00;99.90;;;;;;5047885;28;20223;-50
2022/10/10 04:36:05;;;;;;;44.07;41.03;;;5.00;99.90;;;;;;5047652;28;20205;-52
2022/10/10 04:38:33;;;;;;;23.50;21.57;;;5.00;99.90;;;;;;5048631;28;20328;-51
2022/10/10 04:41:02;;;;;;;15.73;14.37;;;5.00;99.90;;;;;;5048257;28;20212;-50
2022/10/10 04:43:30;;;;;;;33.33;31.30;;;5.00;99.90;;;;;;5044732;28;20262;-49
2022/10/10 04:45:58;;;;;;;44.17;41.03;;;5.00;99.90;;;;;;5049529;28;20216;-50
2022/10/10 04:48:28;;;;;;;40.13;37.03;;;5.00;99.90;;;;;;5048680;28;20297;-51
2022/10/10 04:50:58;;;;;;;44.53;41.40;;;4.90;99.90;;;;;;5043648;28;20246;-51
2022/10/10 04:53:27;;;;;;;48.73;45.63;;;4.90;99.90;;;;;;5050924;28;20313;-50
2022/10/10 04:55:55;;;;;;;30.67;28.67;;;4.80;99.90;;;;;;5044611;28;20216;-51
2022/10/10 04:58:23;;;;;;;65.57;60.93;;;4.90;99.90;;;;;;5044795;28;20202;-51
2022/10/10 05:00:52;;;;;;;49.60;45.00;;;4.80;99.90;;;;;;5051317;28;20204;-50
2022/10/10 05:03:21;;;;;;;59.57;55.00;;;4.80;99.90;;;;;;5051310;28;20313;-50
2022/10/10 05:05:50;;;;;;;105.73;96.00;;;4.80;99.90;;;;;;5045798;28;20232;-51
2022/10/10 05:08:19;;;;;;;35.90;33.47;;;4.80;99.90;;;;;;5050477;28;20300;-50
2022/10/10 05:10:47;;;;;;;22.10;20.43;;;4.70;99.90;;;;;;5048557;28;20245;-50
2022/10/10 05:13:16;;;;;;;53.87;49.07;;;4.70;99.90;;;;;;5051220;28;20204;-51
2022/10/10 05:15:44;;;;;;;38.17;35.10;;;4.70;99.90;;;;;;5042320;28;20248;-51
2022/10/10 05:18:12;;;;;;;25.87;24.07;;;4.70;99.90;;;;;;5052144;28;20205;-51
2022/10/10 05:20:42;;;;;;;37.07;35.10;;;4.70;99.90;;;;;;5050720;28;20219;-51
2022/10/10 05:23:12;;;;;;;27.83;26.27;;;4.70;99.90;;;;;;5052087;28;20245;-51
2022/10/10 05:25:43;;;;;;;66.00;61.50;;;4.70;99.90;;;;;;5051874;28;20273;-50
2022/10/10 05:28:11;;;;;;;100.67;90.50;;;4.70;99.90;;;;;;5051580;28;20306;-50
2022/10/10 05:30:39;;;;;;;34.67;32.07;;;4.70;99.90;;;;;;5050365;28;20231;-49
2022/10/10 05:33:07;;;;;;;19.20;17.70;;;4.60;99.90;;;;;;5050784;28;20762;-50
2022/10/10 05:35:36;;;;;;;58.40;54.13;;;4.70;99.90;;;;;;5050036;28;20295;-50
2022/10/10 05:38:04;;;;;;;55.87;52.23;;;4.60;99.90;;;;;;5045677;28;20311;-51
2022/10/10 05:40:33;;;;;;;29.70;27.13;;;4.60;99.90;;;;;;5050875;28;22061;-50
2022/10/10 05:43:01;;;;;;;64.07;57.30;;;4.60;99.90;;;;;;5050341;28;20298;-51
2022/10/10 05:45:29;;;;;;;57.30;53.60;;;4.60;99.90;;;;;;5051713;28;20682;-50
2022/10/10 05:47:57;;;;;;;37.83;34.07;;;4.60;99.90;;;;;;5050133;28;20215;-50
2022/10/10 05:50:33;;;;;;;40.77;37.70;;;4.60;99.90;;;;;;5051456;28;20225;-50
2022/10/10 05:53:01;;;;;;;73.80;67.80;;;4.60;99.90;;;;;;5047496;28;20293;-50
2022/10/10 05:55:29;;;;;;;20.03;18.27;;;4.60;99.90;;;;;;5045818;28;20214;-50
2022/10/10 05:57:58;;;;;;;22.03;20.47;;;4.60;99.90;;;;;;5049818;28;20588;-50
2022/10/10 06:00:26;;;;;;;19.60;17.97;;;4.60;99.90;;;;;;5050400;28;20210;-50
2022/10/10 06:02:57;;;;;;;51.40;47.30;;;4.60;99.90;;;;;;5050037;28;20218;-50
2022/10/10 06:05:25;;;;;;;40.33;37.53;;;4.60;99.90;;;;;;5049562;28;20217;-50
2022/10/10 06:07:53;;;;;;;43.27;38.90;;;4.60;99.90;;;;;;5050755;28;20611;-51
2022/10/10 06:10:41;;;;;;;59.43;55.97;;;4.60;99.90;;;;;;5048737;28;20328;-51
2022/10/10 06:13:11;;;;;;;67.90;63.73;;;4.60;99.90;;;;;;5045970;28;20665;-51
2022/10/10 06:15:40;;;;;;;24.33;22.37;;;4.60;99.90;;;;;;5050753;28;20225;-50
2022/10/10 06:18:09;;;;;;;50.97;47.43;;;4.60;99.90;;;;;;5049973;28;20646;-50
2022/10/10 06:20:37;;;;;;;41.70;38.57;;;4.60;99.90;;;;;;5051247;28;20585;-50
2022/10/10 06:23:07;;;;;;;71.10;65.67;;;4.70;99.90;;;;;;5048787;28;20302;-50
2022/10/10 06:25:36;;;;;;;30.97;27.87;;;4.80;99.90;;;;;;5051323;28;20299;-50
2022/10/10 06:28:10;;;;;;;82.63;72.00;;;5.00;99.90;;;;;;5050536;28;20198;-50
2022/10/10 06:30:42;;;;;;;76.70;67.37;;;5.10;99.90;;;;;;5048540;28;20206;-50
2022/10/10 06:33:13;;;;;;;70.97;63.80;;;5.20;99.90;;;;;;5047511;28;20714;-50
2022/10/10 06:35:43;;;;;;;65.53;58.73;;;5.30;99.90;;;;;;5049443;28;20233;-50
2022/10/10 06:38:11;;;;;;;53.57;49.63;;;5.30;99.90;;;;;;5049679;28;20305;-50
2022/10/10 06:40:40;;;;;;;108.43;97.00;;;5.40;99.90;;;;;;5047208;28;20280;-50
2022/10/10 06:43:11;;;;;;;56.37;51.00;;;5.40;99.90;;;;;;5046135;28;20684;-51
2022/10/10 06:45:41;;;;;;;48.13;44.40;;;5.40;99.90;;;;;;5037149;28;20209;-51
2022/10/10 06:48:10;;;;;;;48.00;43.43;;;5.50;99.90;;;;;;5049666;28;20297;-51
2022/10/10 06:50:38;;;;;;;28.03;23.23;;;5.60;99.90;;;;;;5049253;28;20688;-51
2022/10/10 06:53:06;;;;;;;36.73;33.87;;;5.80;99.90;;;;;;5049030;28;21854;-50
2022/10/10 06:55:34;;;;;;;191.70;140.80;;;5.90;99.90;;;;;;5048546;28;20723;-51
2022/10/10 06:58:02;;;;;;;461.50;323.20;;;6.20;99.90;;;;;;5049714;28;20201;-48
2022/10/10 07:00:32;;;;;;;423.10;290.70;;;6.40;99.90;;;;;;5049722;28;20299;-50
2022/10/10 07:03:00;;;;;;;339.67;212.00;;;6.60;99.90;;;;;;5049027;28;20649;-51
2022/10/10 07:05:28;;;;;;;1018.13;623.23;;;6.90;99.90;;;;;;5049236;28;20213;-50
2022/10/10 07:07:56;;;;;;;1298.27;678.63;;;7.10;99.90;;;;;;5044165;28;20659;-51
2022/10/10 07:10:24;;;;;;;1231.70;679.17;;;7.20;99.90;;;;;;5048208;28;20208;-51
2022/10/10 07:12:52;;;;;;;937.30;611.47;;;7.40;99.90;;;;;;5033626;28;20222;-50
2022/10/10 07:15:21;;;;;;;863.80;632.10;;;7.60;99.90;;;;;;5047944;28;21057;-51
2022/10/10 07:17:56;;;;;;;815.03;562.30;;;7.80;99.90;;;;;;5036427;28;20208;-50
2022/10/10 07:20:24;;;;;;;1041.43;679.53;;;7.90;99.90;;;;;;5048450;28;20288;-50
2022/10/10 07:22:53;;;;;;;1251.70;758.63;;;8.10;99.90;;;;;;5035817;28;20208;-51
2022/10/10 07:25:21;;;;;;;1233.07;709.63;;;8.40;99.90;;;;;;5048824;28;20252;-50
2022/10/10 07:27:49;;;;;;;1201.27;692.97;;;8.50;99.90;;;;;;5049393;28;20237;-50
2022/10/10 07:30:17;;;;;;;979.03;630.13;;;8.70;99.90;;;;;;5050324;28;20300;-50
2022/10/10 07:32:46;;;;;;;1003.53;659.73;;;8.90;99.90;;;;;;5045290;28;20229;-51
2022/10/10 07:35:15;;;;;;;841.23;679.57;;;9.00;99.90;;;;;;5049384;28;20312;-50
2022/10/10 07:37:44;;;;;;;1162.37;656.10;;;9.20;99.90;;;;;;5036250;28;20252;-50
2022/10/10 07:40:12;;;;;;;1008.63;631.13;;;9.30;99.90;;;;;;5048716;28;20228;-51
2022/10/10 07:42:40;;;;;;;960.97;614.43;;;9.30;99.90;;;;;;5049082;28;20202;-51
2022/10/10 07:45:11;;;;;;;808.90;563.90;;;9.20;99.90;;;;;;5044191;28;20710;-50
2022/10/10 07:47:39;;;;;;;508.23;297.03;;;9.20;99.90;;;;;;5048537;28;20205;-51
2022/10/10 07:50:08;;;;;;;663.57;408.80;;;9.20;99.90;;;;;;5043855;28;20205;-51
2022/10/10 07:52:38;;;;;;;670.73;425.70;;;9.30;99.90;;;;;;5049054;28;20549;-50
2022/10/10 07:55:07;;;;;;;670.07;440.73;;;9.30;99.90;;;;;;5047541;28;20237;-50
2022/10/10 07:57:36;;;;;;;549.63;372.63;;;9.40;99.90;;;;;;5038964;28;20211;-50
2022/10/10 08:00:06;;;;;;;160.47;126.00;;;9.50;99.90;;;;;;5035862;28;21161;-51
2022/10/10 08:02:34;;;;;;;422.33;329.63;;;9.50;99.90;;;;;;5028340;28;20657;-50
2022/10/10 08:05:02;;;;;;;530.33;405.67;;;9.60;99.90;;;;;;5039078;28;20335;-50
2022/10/10 08:07:30;;;;;;;532.10;333.43;;;9.60;99.90;;;;;;5039232;28;20702;-51
2022/10/10 08:10:01;;;;;;;185.77;119.47;;;9.70;99.90;;;;;;5047609;28;20213;-51
2022/10/10 08:12:29;;;;;;;411.13;304.97;;;9.70;99.90;;;;;;5043353;28;20359;-50
2022/10/10 08:14:58;;;;;;;364.97;185.53;;;9.80;99.90;;;;;;5031127;28;20250;-51
2022/10/10 08:17:26;;;;;;;620.83;401.37;;;9.90;99.90;;;;;;5039480;28;20230;-50
2022/10/10 08:19:54;;;;;;;410.27;261.37;;;9.90;99.90;;;;;;5043382;28;20197;-50
2022/10/10 08:22:22;;;;;;;512.23;305.30;;;9.90;99.90;;;;;;5048073;28;20285;-51
2022/10/10 08:24:50;;;;;;;680.40;377.17;;;10.00;99.90;;;;;;5047269;28;20785;-50
2022/10/10 08:27:19;;;;;;;456.20;242.00;;;10.00;99.90;;;;;;5048747;28;20283;-50
2022/10/10 08:29:48;;;;;;;791.33;456.07;;;10.10;99.90;;;;;;5048959;28;20225;-50
2022/10/10 08:32:16;;;;;;;540.47;340.00;;;10.10;99.90;;;;;;5048667;28;20222;-50
2022/10/10 08:34:44;;;;;;;590.53;401.90;;;10.10;99.90;;;;;;5046461;28;20260;-50
2022/10/10 08:37:12;;;;;;;621.53;379.23;;;10.20;99.90;;;;;;5047527;28;20213;-50
2022/10/10 08:39:40;;;;;;;522.73;300.37;;;10.20;99.90;;;;;;5039308;28;20584;-51
2022/10/10 08:42:17;;;;;;;835.03;422.80;;;10.30;99.90;;;;;;5045795;28;20296;-51
2022/10/10 08:44:51;;;;;;;765.07;480.70;;;10.40;99.90;;;;;;5048270;28;20237;-50
2022/10/10 08:47:24;;;;;;;401.17;212.60;;;10.40;99.90;;;;;;5048062;28;20208;-50
2022/10/10 08:49:56;;;;;;;595.60;387.30;;;10.50;99.90;;;;;;5048462;28;20206;-50
2022/10/10 08:52:31;;;;;;;634.10;392.33;;;10.50;99.90;;;;;;5042885;28;20227;-52
2022/10/10 08:55:02;;;;;;;505.90;302.83;;;10.50;99.90;;;;;;5048385;28;20312;-49
2022/10/10 08:57:33;;;;;;;622.77;364.27;;;10.60;99.90;;;;;;5047597;28;20296;-52
2022/10/10 09:00:06;;;;;;;478.60;297.37;;;10.70;99.90;;;;;;5048230;28;20206;-50
2022/10/10 09:02:38;;;;;;;811.23;496.57;;;10.60;99.90;;;;;;5048190;28;20293;-50
2022/10/10 09:05:37;;;;;;;762.40;476.40;;;10.70;99.90;;;;;;5047242;28;20248;-50
2022/10/10 09:08:18;;;;;;;1305.80;603.20;;;10.70;99.90;;;;;;5048185;28;20296;-50
2022/10/10 09:10:56;;;;;;;832.57;500.53;;;10.80;99.90;;;;;;5048077;28;20224;-50
2022/10/10 09:13:32;;;;;;;773.47;433.00;;;10.80;99.90;;;;;;5047844;28;20659;-52
2022/10/10 09:16:06;;;;;;;757.50;474.90;;;10.80;99.90;;;;;;5048167;28;20930;-50
2022/10/10 09:18:58;;;;;;;822.77;443.10;;;10.90;99.90;;;;;;5048126;28;21030;-50
2022/10/10 09:21:31;;;;;;;451.17;248.00;;;10.90;99.90;;;;;;5048237;28;20201;-50
2022/10/10 09:24:04;;;;;;;727.87;399.10;;;11.10;99.90;;;;;;5047039;28;20320;-50
2022/10/10 09:26:37;;;;;;;660.50;387.13;;;11.10;99.90;;;;;;5034437;28;20304;-51
2022/10/10 09:29:23;;;;;;;655.50;322.73;;;11.10;99.90;;;;;;5047160;28;20209;-52
2022/10/10 09:31:57;;;;;;;727.33;402.57;;;11.20;99.90;;;;;;5045377;28;20209;-51
2022/10/10 09:34:34;;;;;;;410.87;241.77;;;11.20;99.90;;;;;;5045867;28;20312;-50
2022/10/10 09:37:03;;;;;;;572.80;336.90;;;11.30;99.90;;;;;;5044332;28;20217;-50
2022/10/10 09:39:37;;;;;;;777.43;403.60;;;11.30;99.90;;;;;;5047185;28;20205;-51
2022/10/10 09:42:10;;;;;;;499.43;284.87;;;11.40;99.90;;;;;;5038050;28;20582;-51
2022/10/10 09:44:39;;;;;;;695.80;379.97;;;11.50;99.90;;;;;;5050931;28;20225;-52
2022/10/10 09:47:12;;;;;;;802.87;457.97;;;11.60;99.90;;;;;;5051583;28;20288;-51
2022/10/10 09:49:40;;;;;;;712.23;355.17;;;11.60;99.90;;;;;;5050181;28;20598;-51
2022/10/10 09:52:26;;;;;;;1717.93;687.70;;;11.70;99.90;;;;;;5050582;28;20248;-52
2022/10/10 09:54:59;;;;;;;1702.73;663.13;;;11.80;99.90;;;;;;5041221;28;20325;-51
2022/10/10 09:57:33;;;;;;;776.03;412.77;;;11.80;99.90;;;;;;5049599;28;20292;-50
2022/10/10 10:00:32;;;;;;;916.47;423.13;;;11.80;99.90;;;;;;5048617;28;20236;-52
2022/10/10 10:03:10;;;;;;;832.33;477.83;;;11.80;99.90;;;;;;5048501;28;20293;-50
2022/10/10 10:05:39;;;;;;;626.53;280.00;;;11.90;99.90;;;;;;5047884;28;20205;-51
2022/10/10 10:08:19;;;;;;;640.47;322.17;;;12.00;99.90;;;;;;5043739;28;20296;-51
2022/10/10 10:10:47;;;;;;;1286.87;503.17;;;12.10;99.90;;;;;;5047026;28;20209;-50
2022/10/10 10:13:24;;;;;;;525.60;333.40;;;12.20;99.90;;;;;;5047484;28;20335;-50
2022/10/10 10:15:59;;;;;;;1085.80;496.10;;;12.20;99.90;;;;;;5048864;28;20244;-51
2022/10/10 10:18:29;;;;;;;633.37;289.83;;;12.30;99.90;;;;;;5050191;28;20666;-50
2022/10/10 10:21:16;;;;;;;787.53;413.50;;;12.40;99.90;;;;;;5048987;28;20305;-51
2022/10/10 10:23:54;;;;;;;806.63;414.23;;;12.50;99.90;;;;;;5046237;28;20230;-51
2022/10/10 10:26:26;;;;;;;999.20;472.67;;;12.50;99.90;;;;;;5048213;28;20741;-51
2022/10/10 10:28:56;;;;;;;1263.47;601.70;;;12.60;99.90;;;;;;5050045;28;20310;-51
2022/10/10 10:31:53;;;;;;;1588.80;644.87;;;12.60;99.90;;;;;;5050093;28;20210;-51
2022/10/10 10:34:45;;;;;;;1030.87;482.83;;;12.70;99.90;;;;;;5049062;28;20312;-51
2022/10/10 10:37:21;;;;;;;1184.60;588.43;;;12.80;99.90;;;;;;5050176;28;20221;-51
2022/10/10 10:40:23;;;;;;;1026.37;540.67;;;12.80;99.90;;;;;;5048472;28;20307;-51
2022/10/10 10:43:27;;;;;;;760.33;436.17;;;12.90;99.90;;;;;;5040788;28;20288;-51
2022/10/10 10:46:06;;;;;;;927.63;478.63;;;12.90;99.90;;;;;;5048928;28;20210;-51
2022/10/10 10:48:42;;;;;;;1464.23;615.93;;;13.00;99.90;;;;;;5050904;28;20207;-51
2022/10/10 10:51:27;;;;;;;719.77;323.97;;;13.00;99.90;;;;;;5049593;28;20292;-51
2022/10/10 10:54:03;;;;;;;899.07;498.30;;;13.00;99.90;;;;;;5048757;28;20225;-51
2022/10/10 10:56:38;;;;;;;1358.70;608.50;;;13.00;99.90;;;;;;5049844;28;20211;-51
2022/10/10 10:59:21;;;;;;;1675.23;701.13;;;13.10;99.90;;;;;;5048270;28;20212;-50
2022/10/10 11:02:28;;;;;;;946.80;458.10;;;13.20;99.90;;;;;;5049184;28;20717;-51
2022/10/10 11:05:38;;;;;;;1270.10;657.30;;;13.40;99.90;;;;;;5048821;28;20225;-50
2022/10/10 11:08:30;;;;;;;845.60;379.63;;;13.50;99.90;;;;;;5038709;28;20236;-51
2022/10/10 11:11:10;;;;;;;1088.30;545.80;;;13.70;99.90;;;;;;5048197;28;20690;-51
2022/10/10 11:13:46;;;;;;;1140.83;625.77;;;13.70;99.90;;;;;;5045184;28;20325;-51
2022/10/10 11:16:22;;;;;;;1051.40;418.97;;;13.80;99.90;;;;;;5049167;28;20240;-51
2022/10/10 11:19:22;;;;;;;1394.33;705.77;;;13.90;99.90;;;;;;5049366;28;20571;-51
2022/10/10 11:21:56;;;;;;;835.77;418.17;;;14.00;99.90;;;;;;5043889;28;20214;-50
2022/10/10 11:24:34;;;;;;;966.27;464.07;;;14.10;99.90;;;;;;5040621;28;20259;-50
2022/10/10 11:27:09;;;;;;;1019.13;479.23;;;14.30;99.90;;;;;;5039700;28;20228;-51
2022/10/10 11:29:49;;;;;;;1084.40;559.10;;;14.30;99.90;;;;;;5049080;28;20213;-51
2022/10/10 11:32:24;;;;;;;1009.57;455.50;;;14.40;99.90;;;;;;5048759;28;20205;-51
2022/10/10 11:35:09;;;;;;;1885.87;751.07;;;14.50;99.90;;;;;;5048670;28;20236;-51
2022/10/10 11:37:45;;;;;;;1129.30;491.80;;;14.60;99.90;;;;;;5042544;28;20217;-51
2022/10/10 11:40:32;;;;;;;1909.60;680.57;;;14.70;99.90;;;;;;5048728;28;20263;-51
2022/10/10 11:43:05;;;;;;;1756.53;708.37;;;14.70;99.90;;;;;;5048414;28;20217;-51
2022/10/10 11:45:38;;;;;;;1061.70;562.20;;;14.60;99.90;;;;;;5047957;28;20778;-51
2022/10/10 11:48:17;;;;;;;1439.73;633.23;;;14.60;99.90;;;;;;5047077;28;20732;-51
2022/10/10 11:50:53;;;;;;;1400.33;641.97;;;14.70;99.90;;;;;;5049442;28;20197;-51
2022/10/10 11:53:30;;;;;;;1246.30;608.95;;;14.80;99.90;;;;;;5048525;28;20229;-50
2022/10/10 11:56:08;;;;;;;1212.80;557.67;;;14.90;99.90;;;;;;5038364;28;20209;-50
2022/10/10 11:58:40;;;;;;;1054.07;539.60;;;14.90;99.90;;;;;;5045232;28;20236;-50
2022/10/10 12:01:16;;;;;;;1148.60;604.73;;;14.90;99.90;;;;;;5038997;28;20259;-51
2022/10/10 12:03:44;;;;;;;1439.83;639.10;;;15.00;99.90;;;;;;5033062;28;20263;-51
2022/10/10 12:06:21;;;;;;;1567.60;710.80;;;15.00;99.90;;;;;;5048023;28;20211;-50
2022/10/10 12:08:58;;;;;;;949.60;425.67;;;15.10;99.90;;;;;;5048483;28;20678;-51
2022/10/10 12:11:33;;;;;;;987.00;423.67;;;15.20;99.90;;;;;;5048346;28;20693;-52
2022/10/10 12:14:03;;;;;;;1145.97;484.43;;;15.30;99.90;;;;;;5047043;28;20297;-52
2022/10/10 12:16:36;;;;;;;1380.37;549.90;;;15.40;99.90;;;;;;5048491;28;20252;-51
2022/10/10 12:19:06;;;;;;;1879.70;764.53;;;15.50;99.90;;;;;;5046768;28;20288;-50
2022/10/10 12:21:58;;;;;;;1545.10;619.13;;;15.60;99.90;;;;;;5039176;28;20210;-53
2022/10/10 12:24:28;;;;;;;1416.97;685.20;;;15.60;99.90;;;;;;5030002;28;20740;-51
2022/10/10 12:27:42;;;;;;;1702.50;639.03;;;15.60;99.90;;;;;;5047282;28;20201;-51
2022/10/10 12:30:23;;;;;;;1287.43;693.80;;;15.70;99.90;;;;;;5047694;28;20339;-51
2022/10/10 12:32:54;;;;;;;1275.32;541.78;;;15.70;99.90;;;;;;5042755;28;20210;-51
2022/10/10 12:35:43;;;;;;;1644.70;662.90;;;15.70;99.90;;;;;;5047619;28;20264;-51
2022/10/10 12:38:23;;;;;;;1017.77;546.47;;;15.80;99.90;;;;;;5033908;28;20618;-54
2022/10/10 12:41:07;;;;;;;1495.15;563.35;;;15.80;99.90;;;;;;5048501;28;20891;-54
2022/10/10 12:43:50;;;;;;;846.95;441.55;;;15.80;99.90;;;;;;5044744;28;20257;-50
2022/10/10 12:46:30;;;;;;;1999.90;817.20;;;15.80;99.90;;;;;;5034621;28;20207;-50
2022/10/10 12:49:05;;;;;;;1271.43;652.47;;;15.80;99.90;;;;;;5034537;28;20723;-51
2022/10/10 12:51:36;;;;;;;1233.63;611.97;;;15.80;99.90;;;;;;5048088;28;20292;-51